Strona główna
METAR-TAF:

METAR-TAF

Lotnisko :

Port lotniczy Kuwejt

Kuwejt, Kuwejt

Szerokość geograficzna: 29-13N, Długość geograficzna: 047-59E, wysokość: 55 m

Aktualna obserwacja pogody

Raport powstał 59 minut temu, godzina 11:00 UTC
Wiatr 5 kt od wschód
Temperatura 35°C
Wilgotność 30%
Ciśnienie 1013 hPa
Widzialność: 6000 m
bezchmurnie

METAR: OKBK 161100Z 10005KT 6000 SKC 35/15 Q1013 NOSIG

czas: 14:59 (11:59 UTC)

Prognoza

Raport powstał 1 godzina i 14 minut temu, godzina 10:45 UTC
Prognoza ważna od 16 godzina 12 UTC do 17 godzina 18 UTC
Wiatr 10 kt od wschód
Widzialność: 6000 m
Prawdopodobieństwo 30% :
Przejściowo
od 16 godzina 12 UTC do 16 godzina 18 UTC
Wiatr 10 kt od południowo-południowy wschód w porywach dochodzący do 20 kt
Widzialność: 3000 m
Mało chmury na wysokości 3000 ft, Cumulonimbus.

TAF: OKBK 161045Z 1612/1718 08010KT 6000 NSC PROB30 TEMPO 1612/1618 15010G20KT 3000 -TSRA/BLDU FEW030CB

Obserwacja i prognoza pogody dla ponad 4000 lotnisk (raport METAR i TAF).

Dostępne stacje oznaczono żółtymi i czerwonymi punktami na mapie.

Najedź kursorem aby zobaczyć nazwę stacji.

Kliknij aby zobaczyć obserwacje i prognozy pogody.

Aby zmienić mapę: kliknij na zielony przycisk z czarnym krzyżykiem, aby powiększyć; na zielony przycisk z myślnikiem, aby pomniejszyć; na zielone strzałki, aby przejść do map sąsiednich.


METAR-TAF: